Impacts TAF Board INFO
FOR SITUATIONAL AWARENESS. NOT TO BE USED FOR FLIGHT PLANNING PURPOSES.
IDs:

KPDX - Portland Intl Arpt, OR, US

Issued at 1727 UTC 18 Nov 2017
Updated at 1749 UTC 18 Nov 2017
Potential Impact None Slight Moderate High
Time1653Z 18/18Z 18/19Z 18/20Z 18/21Z 18/22Z 18/23Z 19/00Z 19/01Z 19/02Z 19/03Z 19/04Z 19/05Z 19/06Z>>
Type OBS PRVL
  [TEMP]  
PRVL
  [TEMP]  
PRVL PRVL PRVL PRVL PRVL PRVL PRVL PRVL PRVL PRVL PRVL
VIS 3 >6
  [4]  
>6
  [4]  
>6 >6 >6 >6 >6 >6 >6 >6 >6 >6 >6
CIG 130 --
  [7]  
--
  [7]  
-- -- -- -- -- -- -- -- -- -- --
Cover BKN SCT
  [BKN]  
SCT
  [BKN]  
SCT SCT SCT SCT SCT SCT SCT SCT SCT SCT SCT
FltCat MVFR VFR
  [IFR]  
VFR
  [IFR]  
VFR VFR VFR VFR VFR VFR VFR VFR VFR VFR VFR
WX BR --
  [BR]  
--
  [BR]  
-- -- -- -- -- -- -- -- -- -- --
WDir 260 280
[280]
280
[280]
VRB VRB VRB VRB VRB VRB VRB VRB VRB VRB VRB
WSpd 3 3
  [3]  
3
  [3]  
4 4 4 4 4 4 4 4 4 4 4
WGst -- --
  [--]  
--
  [--]  
-- -- -- -- -- -- -- -- -- -- --

Raw TAF
KPDX 181727Z 1818/1918 28003KT P6SM SCT250
  TEMPO 1818/1820 4SM BR BKN007
  FM182000 VRB04KT P6SM SCT250
  FM190900 11005KT P6SM SCT250


Raw METAR
KPDX 181653Z 26003KT 3SM R10R/2600V5000FT BR SCT007 BKN130 04/04 A3030 RMK AO2 SLP260 VIS E 10 T00440044
KPDX 181634Z 27005KT 2SM R10R/2000V2400FT BR BKN007 BKN130 04/04 A3031 RMK AO2 TWR VIS 7 VIS E 10 T00440044
KPDX 181621Z 26004KT 1SM R10R/1600V2200FT BR BKN007 BKN130 04/04 A3031 RMK AO2 TWR VIS 7 VIS E 10 T00440044
KPDX 181553Z 25003KT 6SM R10R/1000FT BR FEW001 SCT003 BKN130 BKN220 03/03 A3031 RMK AO2 SLP262 VIS W 2 T00330033
KPDX 181537Z 27003KT 6SM R10R/1200V2200FT BR FEW003 BKN220 03/03 A3031 RMK AO2 T00330033
KPDX 181530Z COR 28003KT 10SM R10R/1400V4000FT BR FEW003 BKN220 03/03 A3031 RMK AO2 T00280028
KPDX 181453Z 00000KT 10SM FEW010 BKN220 03/03 A3032 RMK AO2 SLP267 T00330028 56010

METAR Board
Radar Display
Forecast Discussion

FOR SITUATIONAL AWARENESS. NOT TO BE USED FOR FLIGHT PLANNING PURPOSES.